createdAt,value
2023-02-06T00:02:25.374Z,100.00
2023-02-06T00:05:13.098Z,100.00
2023-02-06T00:07:52.051Z,100.00
2023-02-06T00:10:38.833Z,100.00
2023-02-06T00:13:11.005Z,100.00
2023-02-06T00:15:58.229Z,100.00
2023-02-06T00:18:36.812Z,100.00
2023-02-06T00:21:25.053Z,100.00
2023-02-06T00:24:08.751Z,100.00
2023-02-06T00:26:49.906Z,100.00
2023-02-06T00:29:30.048Z,100.00
2023-02-06T00:32:08.359Z,100.00
2023-02-06T00:34:47.180Z,100.00
2023-02-06T00:37:29.873Z,100.00
2023-02-06T00:40:05.522Z,100.00
2023-02-06T00:42:48.093Z,100.00
2023-02-06T00:45:36.119Z,100.00
2023-02-06T00:48:24.438Z,100.00
2023-02-06T00:51:03.782Z,100.00
2023-02-06T00:54:00.518Z,100.00
2023-02-06T00:56:35.046Z,100.00
2023-02-06T00:59:27.887Z,100.00
2023-02-06T01:01:58.221Z,100.00
2023-02-06T01:04:31.194Z,100.00
2023-02-06T01:07:12.655Z,100.00
2023-02-06T01:09:48.476Z,100.00
2023-02-06T01:12:26.792Z,100.00
2023-02-06T01:15:04.429Z,100.00
2023-02-06T01:17:40.753Z,100.00
2023-02-06T01:20:24.858Z,100.00
2023-02-06T01:23:13.819Z,100.00
2023-02-06T01:25:52.125Z,100.00
2023-02-06T01:28:35.267Z,100.00
2023-02-06T01:31:23.195Z,100.00
2023-02-06T01:33:54.235Z,100.00
2023-02-06T01:36:28.081Z,100.00
2023-02-06T01:39:20.289Z,100.00
2023-02-06T01:41:54.060Z,100.00
2023-02-06T01:44:33.606Z,100.00
2023-02-06T01:47:15.419Z,100.00
2023-02-06T01:49:54.039Z,100.00
2023-02-06T01:52:34.809Z,100.00
2023-02-06T01:55:28.678Z,100.00
2023-02-06T01:58:05.912Z,100.00
2023-02-06T02:00:44.731Z,100.00
2023-02-06T02:03:26.326Z,100.00
2023-02-06T02:06:04.856Z,100.00
2023-02-06T02:08:50.071Z,100.00
2023-02-06T02:12:01.231Z,100.00
2023-02-06T02:14:36.802Z,100.00
2023-02-06T02:17:33.401Z,100.00
2023-02-06T02:20:42.136Z,100.00
2023-02-06T02:23:37.630Z,100.00
2023-02-06T02:26:39.844Z,100.00
2023-02-06T02:29:54.206Z,100.00
2023-02-06T02:33:05.114Z,100.00
2023-02-06T02:35:46.458Z,100.00
2023-02-06T02:38:24.972Z,100.00
2023-02-06T02:41:33.892Z,100.00
2023-02-06T02:44:51.087Z,100.00
2023-02-06T02:47:30.517Z,100.00
2023-02-06T02:50:12.872Z,100.00
2023-02-06T02:53:02.055Z,100.00
2023-02-06T02:55:35.541Z,100.00
2023-02-06T02:58:22.977Z,100.00
2023-02-06T03:01:11.625Z,100.00
2023-02-06T03:03:56.764Z,100.00
2023-02-06T03:06:44.782Z,100.00
2023-02-06T03:09:38.594Z,100.00
2023-02-06T03:12:38.002Z,100.00
2023-02-06T03:15:33.077Z,100.00
2023-02-06T03:18:41.493Z,100.00
2023-02-06T03:21:42.980Z,100.00
2023-02-06T03:24:47.236Z,100.00
2023-02-06T03:27:27.454Z,100.00
2023-02-06T03:30:12.081Z,100.00
2023-02-06T03:32:56.858Z,100.00
2023-02-06T03:35:59.738Z,100.00
2023-02-06T03:38:40.908Z,100.00
2023-02-06T03:41:24.112Z,100.00
2023-02-06T03:43:57.543Z,100.00
2023-02-06T03:46:31.967Z,100.00
2023-02-06T03:49:10.009Z,100.00
2023-02-06T03:51:48.643Z,100.00
2023-02-06T03:54:31.037Z,100.00
2023-02-06T03:57:12.365Z,100.00
2023-02-06T03:59:58.157Z,100.00
2023-02-06T04:02:32.257Z,100.00
2023-02-06T04:05:05.218Z,100.00
2023-02-06T04:07:39.697Z,100.00
2023-02-06T04:10:15.299Z,100.00
2023-02-06T04:12:56.569Z,100.00
2023-02-06T04:15:34.166Z,100.00
2023-02-06T04:18:25.184Z,100.00
2023-02-06T04:21:14.019Z,100.00
2023-02-06T04:23:46.544Z,100.00
2023-02-06T04:26:27.100Z,100.00
2023-02-06T04:29:02.340Z,100.00
2023-02-06T04:31:45.975Z,100.00
2023-02-06T04:34:18.011Z,100.00
2023-02-06T04:36:48.439Z,100.00
2023-02-06T04:39:27.050Z,100.00
2023-02-06T04:42:12.037Z,100.00
2023-02-06T04:44:48.379Z,100.00
2023-02-06T04:47:24.352Z,100.00
2023-02-06T04:49:58.822Z,100.00
2023-02-06T04:52:50.306Z,100.00
2023-02-06T04:55:23.218Z,100.00
2023-02-06T04:58:09.134Z,100.00
2023-02-06T05:00:53.761Z,100.00
2023-02-06T05:03:43.741Z,100.00
2023-02-06T05:06:13.734Z,100.00
2023-02-06T05:08:45.217Z,100.00
2023-02-06T05:11:18.138Z,100.00
2023-02-06T05:13:58.242Z,100.00
2023-02-06T05:19:34.197Z,100.00
2023-02-06T05:22:25.053Z,100.00
2023-02-06T05:25:10.034Z,100.00
2023-02-06T05:27:42.941Z,100.00
2023-02-06T05:30:26.862Z,100.00
2023-02-06T05:33:19.854Z,100.00
2023-02-06T05:39:07.962Z,100.00
2023-02-06T05:41:43.865Z,100.00
2023-02-06T05:44:20.548Z,100.00
2023-02-06T05:46:53.022Z,100.00
2023-02-06T05:49:31.713Z,100.00
2023-02-06T05:52:08.737Z,100.00
2023-02-06T05:54:40.365Z,100.00
2023-02-06T05:57:26.766Z,100.00
2023-02-06T06:00:01.320Z,100.00
2023-02-06T06:02:39.034Z,100.00
2023-02-06T06:05:20.243Z,100.00
2023-02-06T06:07:55.075Z,100.00
2023-02-06T06:10:38.081Z,100.00
2023-02-06T06:13:13.655Z,100.00
2023-02-06T06:16:00.853Z,100.00
2023-02-06T06:18:39.612Z,100.00
2023-02-06T06:21:22.021Z,100.00
2023-02-06T06:24:07.928Z,100.00
2023-02-06T06:26:53.830Z,100.00
2023-02-06T06:29:34.760Z,100.00
2023-02-06T06:32:18.212Z,100.00
2023-02-06T06:35:03.228Z,100.00
2023-02-06T06:37:36.005Z,100.00
2023-02-06T06:40:13.114Z,100.00
2023-02-06T06:42:59.294Z,100.00
2023-02-06T06:45:43.661Z,100.00
2023-02-06T06:48:23.392Z,100.00
2023-02-06T06:51:13.587Z,100.00
2023-02-06T06:53:53.662Z,100.00
2023-02-06T06:56:40.181Z,100.00
2023-02-06T06:59:18.164Z,100.00
2023-02-06T07:02:03.840Z,100.00
2023-02-06T07:05:00.757Z,100.00
2023-02-06T07:10:45.565Z,100.00
2023-02-06T07:13:26.588Z,100.00
2023-02-06T07:16:03.435Z,100.00
2023-02-06T07:18:58.249Z,100.00
2023-02-06T07:21:45.202Z,100.00
2023-02-06T07:24:32.396Z,100.00
2023-02-06T07:27:14.639Z,100.00
2023-02-06T07:30:15.962Z,100.00
2023-02-06T07:32:59.464Z,100.00
2023-02-06T07:35:52.641Z,100.00
2023-02-06T07:38:35.782Z,100.00
2023-02-06T07:41:25.282Z,100.00
2023-02-06T07:44:06.087Z,100.00
2023-02-06T07:46:53.613Z,100.00
2023-02-06T07:49:20.578Z,100.00
2023-02-06T07:51:56.961Z,100.00
2023-02-06T07:54:44.297Z,100.00
2023-02-06T07:57:25.989Z,100.00
2023-02-06T08:00:08.333Z,100.00
2023-02-06T08:02:54.007Z,100.00
2023-02-06T08:05:33.006Z,100.00
2023-02-06T08:08:06.658Z,100.00
2023-02-06T08:10:48.545Z,100.00
2023-02-06T08:13:39.028Z,100.00
2023-02-06T08:16:39.568Z,100.00
2023-02-06T08:19:18.253Z,100.00
2023-02-06T08:22:02.373Z,100.00
2023-02-06T08:24:40.476Z,100.00
2023-02-06T08:27:21.807Z,98.13
2023-02-06T08:30:11.832Z,96.44
2023-02-06T08:32:48.648Z,96.76
2023-02-06T08:35:28.000Z,90.24
2023-02-06T08:38:13.219Z,91.87
2023-02-06T08:40:48.578Z,89.07
2023-02-06T08:43:42.917Z,88.58
2023-02-06T08:46:32.077Z,91.67
2023-02-06T08:49:14.981Z,89.54
2023-02-06T08:51:55.159Z,89.89
2023-02-06T08:54:42.327Z,86.57
2023-02-06T08:57:17.658Z,84.38
2023-02-06T09:00:02.765Z,87.30
2023-02-06T09:02:45.314Z,84.10
2023-02-06T09:05:24.992Z,86.46
2023-02-06T09:08:11.800Z,84.92
2023-02-06T09:10:44.456Z,82.26
2023-02-06T09:13:25.787Z,81.85
2023-02-06T09:16:13.926Z,84.46
2023-02-06T09:18:55.141Z,82.58
2023-02-06T09:21:39.340Z,85.65
2023-02-06T09:24:23.590Z,81.92
2023-02-06T09:27:08.799Z,81.68
2023-02-06T09:29:48.324Z,81.41
2023-02-06T09:32:22.144Z,80.91
2023-02-06T09:35:05.824Z,80.35
2023-02-06T09:37:45.318Z,82.95
2023-02-06T09:40:28.163Z,79.54
2023-02-06T09:43:08.922Z,77.64
2023-02-06T09:45:45.201Z,80.21
2023-02-06T09:48:35.993Z,77.48
2023-02-06T09:51:19.254Z,79.81
2023-02-06T09:54:09.205Z,75.44
2023-02-06T09:57:02.122Z,75.41
2023-02-06T09:59:48.550Z,73.91
2023-02-06T10:02:39.970Z,74.05
2023-02-06T10:05:33.129Z,75.71
2023-02-06T10:08:21.504Z,75.62
2023-02-06T10:11:00.209Z,73.80
2023-02-06T10:13:49.896Z,74.10
2023-02-06T10:16:38.067Z,74.08
2023-02-06T10:19:27.293Z,73.91
2023-02-06T10:22:10.960Z,70.33
2023-02-06T10:25:17.004Z,71.96
2023-02-06T10:27:57.626Z,71.49
2023-02-06T10:30:48.708Z,69.04
2023-02-06T10:33:32.746Z,65.75
2023-02-06T10:36:33.226Z,66.12
2023-02-06T10:39:27.047Z,65.74
2023-02-06T10:42:15.595Z,59.89
2023-02-06T10:45:20.278Z,58.46
2023-02-06T10:48:07.775Z,58.84
2023-02-06T10:51:10.263Z,58.52
2023-02-06T10:53:54.706Z,58.41
2023-02-06T10:56:33.307Z,59.64
2023-02-06T10:59:42.014Z,59.08
2023-02-06T11:02:28.301Z,60.41
2023-02-06T11:05:08.304Z,58.05
2023-02-06T11:07:53.882Z,57.09
2023-02-06T11:10:27.039Z,57.55
2023-02-06T11:13:08.440Z,57.71
2023-02-06T11:15:49.736Z,58.84
2023-02-06T11:18:27.378Z,57.82
2023-02-06T11:20:57.170Z,58.07
2023-02-06T11:23:35.064Z,56.97
2023-02-06T11:26:22.686Z,57.51
2023-02-06T11:29:08.670Z,58.99
2023-02-06T11:32:00.185Z,59.04
2023-02-06T11:34:44.495Z,56.05
2023-02-06T11:37:32.867Z,55.65
2023-02-06T11:40:35.933Z,56.49
2023-02-06T11:43:24.652Z,55.62
2023-02-06T11:46:14.914Z,57.41
2023-02-06T11:49:24.757Z,58.10
2023-02-06T11:52:34.184Z,56.21
2023-02-06T11:55:07.731Z,56.24
2023-02-06T11:57:43.100Z,57.74
2023-02-06T12:00:29.275Z,56.11
2023-02-06T12:03:08.581Z,56.98
2023-02-06T12:05:44.494Z,58.79
2023-02-06T12:08:21.940Z,56.94
2023-02-06T12:11:20.293Z,56.73
2023-02-06T12:14:05.239Z,55.62
2023-02-06T12:16:42.483Z,57.51
2023-02-06T12:19:54.970Z,56.41
2023-02-06T12:22:36.161Z,56.84
2023-02-06T12:25:15.285Z,55.75
2023-02-06T12:27:52.078Z,56.68
2023-02-06T12:30:40.117Z,56.73
2023-02-06T12:33:22.522Z,55.91
2023-02-06T12:36:03.225Z,55.09
2023-02-06T12:38:52.869Z,56.08
2023-02-06T12:41:43.062Z,56.43
2023-02-06T12:44:45.519Z,57.26
2023-02-06T12:47:32.126Z,56.69
2023-02-06T12:50:19.379Z,56.96
2023-02-06T12:53:15.200Z,56.75
2023-02-06T12:56:15.752Z,56.86
2023-02-06T12:58:48.677Z,55.17
2023-02-06T13:01:45.676Z,55.08
2023-02-06T13:04:34.304Z,55.40
2023-02-06T13:07:18.649Z,56.81
2023-02-06T13:10:06.016Z,57.77
2023-02-06T13:12:46.480Z,57.01
2023-02-06T13:15:32.837Z,57.11
2023-02-06T13:18:38.185Z,56.47
2023-02-06T13:21:37.285Z,57.18
2023-02-06T13:24:18.660Z,57.63
2023-02-06T13:26:56.688Z,55.74
2023-02-06T13:29:33.790Z,55.52
2023-02-06T13:32:18.746Z,55.51
2023-02-06T13:34:59.992Z,57.44
2023-02-06T13:37:44.503Z,55.93
2023-02-06T13:40:35.617Z,56.84
2023-02-06T13:43:13.847Z,56.75
2023-02-06T13:45:57.937Z,56.48
2023-02-06T13:49:05.766Z,55.95
2023-02-06T13:52:03.135Z,55.94
2023-02-06T13:54:51.353Z,58.33
2023-02-06T13:57:40.158Z,57.22
2023-02-06T14:00:23.033Z,56.63
2023-02-06T14:03:16.420Z,55.93
2023-02-06T14:05:56.735Z,57.12
2023-02-06T14:08:38.072Z,58.11
2023-02-06T14:11:19.957Z,56.79
2023-02-06T14:14:28.442Z,54.40
2023-02-06T14:17:33.654Z,54.80
2023-02-06T14:20:30.438Z,55.85
2023-02-06T14:23:15.754Z,57.05
2023-02-06T14:26:07.818Z,55.79
2023-02-06T14:28:53.154Z,54.92
2023-02-06T14:31:50.675Z,54.29
2023-02-06T14:34:43.667Z,56.18
2023-02-06T14:37:38.145Z,56.56
2023-02-06T14:40:29.314Z,55.75
2023-02-06T14:43:12.988Z,55.15
2023-02-06T14:46:07.038Z,56.60
2023-02-06T14:48:46.002Z,57.95
2023-02-06T14:51:36.554Z,58.49
2023-02-06T14:54:36.853Z,59.20
2023-02-06T14:57:26.723Z,59.04
2023-02-06T15:00:01.126Z,59.42
2023-02-06T15:02:35.306Z,58.52
2023-02-06T15:05:23.091Z,58.35
2023-02-06T15:08:05.807Z,57.06
2023-02-06T15:10:50.593Z,57.41
2023-02-06T15:13:38.417Z,57.70
2023-02-06T15:16:17.725Z,58.43
2023-02-06T15:18:53.421Z,58.77
2023-02-06T15:21:24.946Z,59.59
2023-02-06T15:23:58.270Z,58.81
2023-02-06T15:27:12.384Z,60.40
2023-02-06T15:29:57.183Z,60.15
2023-02-06T15:32:41.871Z,60.44
2023-02-06T15:35:32.377Z,60.72
2023-02-06T15:38:18.270Z,61.26
2023-02-06T15:40:59.953Z,61.08
2023-02-06T15:43:30.675Z,61.94
2023-02-06T15:46:10.761Z,62.31
2023-02-06T15:48:51.212Z,62.76
2023-02-06T15:51:39.123Z,63.77
2023-02-06T15:54:22.425Z,63.57
2023-02-06T15:57:24.541Z,64.33
2023-02-06T15:59:57.316Z,64.44
2023-02-06T16:02:37.540Z,64.77
2023-02-06T16:05:30.561Z,64.76
2023-02-06T16:08:13.005Z,65.41
2023-02-06T16:10:49.613Z,65.70
2023-02-06T16:13:25.689Z,66.29
2023-02-06T16:16:11.691Z,66.91
2023-02-06T16:18:46.653Z,67.71
2023-02-06T16:21:22.458Z,67.90
2023-02-06T16:24:02.476Z,68.62
2023-02-06T16:27:20.953Z,70.98
2023-02-06T16:30:01.045Z,71.66
2023-02-06T16:32:41.781Z,72.83
2023-02-06T16:35:19.544Z,73.52
2023-02-06T16:38:00.657Z,73.01
2023-02-06T16:40:40.962Z,73.99
2023-02-06T16:43:22.511Z,73.18
2023-02-06T16:46:02.277Z,74.70
2023-02-06T16:48:40.759Z,75.63
2023-02-06T16:51:20.038Z,76.88
2023-02-06T16:53:59.191Z,75.24
2023-02-06T16:56:37.302Z,75.39
2023-02-06T16:59:15.541Z,76.17
2023-02-06T17:01:58.252Z,76.90
2023-02-06T17:04:33.029Z,77.14
2023-02-06T17:07:11.980Z,78.22
2023-02-06T17:09:52.797Z,79.08
2023-02-06T17:12:33.485Z,79.83
2023-02-06T17:15:12.631Z,81.19
2023-02-06T17:17:47.517Z,82.30
2023-02-06T17:20:36.199Z,83.79
2023-02-06T17:23:19.982Z,84.40
2023-02-06T17:26:00.679Z,86.53
2023-02-06T17:28:43.892Z,87.66
2023-02-06T17:31:19.042Z,88.46
2023-02-06T17:33:52.132Z,89.95
2023-02-06T17:36:30.060Z,91.05
2023-02-06T17:39:05.765Z,91.94
2023-02-06T17:41:45.909Z,92.64
2023-02-06T17:44:24.489Z,92.97
2023-02-06T17:47:00.342Z,94.58
2023-02-06T17:49:32.887Z,94.43
2023-02-06T17:52:10.579Z,95.11
2023-02-06T17:54:55.945Z,96.17
2023-02-06T17:57:27.985Z,97.47
2023-02-06T18:00:11.044Z,98.86
2023-02-06T18:02:46.611Z,100.00
2023-02-06T18:05:27.779Z,100.00
2023-02-06T18:08:04.277Z,100.00
2023-02-06T18:10:47.303Z,100.00
2023-02-06T18:13:24.440Z,100.00
2023-02-06T18:16:01.623Z,100.00
2023-02-06T18:18:44.499Z,100.00
2023-02-06T18:21:25.412Z,100.00
2023-02-06T18:24:09.712Z,100.00
2023-02-06T18:26:53.076Z,100.00
2023-02-06T18:29:49.434Z,100.00
2023-02-06T18:32:27.015Z,100.00
2023-02-06T18:35:05.672Z,100.00
2023-02-06T18:37:44.380Z,100.00
2023-02-06T18:40:29.795Z,100.00
2023-02-06T18:43:08.173Z,100.00
2023-02-06T18:45:50.904Z,100.00
2023-02-06T18:48:42.381Z,100.00
2023-02-06T18:51:20.907Z,100.00
2023-02-06T18:53:56.220Z,100.00
2023-02-06T18:56:32.601Z,100.00
2023-02-06T18:59:20.646Z,100.00
2023-02-06T19:02:08.247Z,100.00
2023-02-06T19:04:45.557Z,100.00
2023-02-06T19:07:23.889Z,100.00
2023-02-06T19:10:18.753Z,100.00
2023-02-06T19:13:05.164Z,100.00
2023-02-06T19:15:53.178Z,100.00
2023-02-06T19:18:41.940Z,100.00
2023-02-06T19:21:34.688Z,100.00
2023-02-06T19:24:27.059Z,100.00
2023-02-06T19:27:02.111Z,100.00
2023-02-06T19:29:56.476Z,100.00
2023-02-06T19:32:45.197Z,100.00
2023-02-06T19:35:28.422Z,100.00
2023-02-06T19:38:12.265Z,100.00
2023-02-06T19:40:59.220Z,100.00
2023-02-06T19:43:47.244Z,100.00
2023-02-06T19:46:31.614Z,100.00
2023-02-06T19:49:08.917Z,100.00
2023-02-06T19:51:50.901Z,100.00
2023-02-06T19:54:29.128Z,100.00
2023-02-06T19:57:16.147Z,100.00
2023-02-06T19:59:48.304Z,100.00
2023-02-06T20:02:37.422Z,100.00
2023-02-06T20:05:18.062Z,100.00
2023-02-06T20:07:50.799Z,100.00
2023-02-06T20:10:39.844Z,100.00
2023-02-06T20:13:14.496Z,100.00
2023-02-06T20:16:06.161Z,100.00
2023-02-06T20:18:45.049Z,100.00
2023-02-06T20:21:41.618Z,100.00
2023-02-06T20:24:31.999Z,100.00
2023-02-06T20:27:18.793Z,100.00
2023-02-06T20:30:02.689Z,100.00
2023-02-06T20:32:39.160Z,100.00
2023-02-06T20:35:14.890Z,100.00
2023-02-06T20:37:50.621Z,100.00
2023-02-06T20:40:44.681Z,100.00
2023-02-06T20:43:28.926Z,100.00
2023-02-06T20:46:17.480Z,100.00
2023-02-06T20:49:05.634Z,100.00
2023-02-06T20:52:01.341Z,100.00
2023-02-06T20:54:39.320Z,100.00
2023-02-06T20:57:34.622Z,100.00
2023-02-06T21:00:12.907Z,100.00
2023-02-06T21:03:07.453Z,100.00
2023-02-06T21:05:42.751Z,100.00
2023-02-06T21:08:32.303Z,100.00
2023-02-06T21:11:11.449Z,100.00
2023-02-06T21:13:51.972Z,100.00
2023-02-06T21:16:30.955Z,100.00
2023-02-06T21:19:07.724Z,100.00
2023-02-06T21:21:48.687Z,100.00
2023-02-06T21:24:40.434Z,100.00
2023-02-06T21:27:24.098Z,100.00
2023-02-06T21:30:01.939Z,100.00
2023-02-06T21:32:52.724Z,100.00
2023-02-06T21:35:42.933Z,100.00
2023-02-06T21:38:33.538Z,100.00
2023-02-06T21:41:19.025Z,100.00
2023-02-06T21:43:57.776Z,100.00
2023-02-06T21:46:56.932Z,100.00
2023-02-06T21:49:32.194Z,100.00
2023-02-06T21:52:16.248Z,100.00
2023-02-06T21:55:07.661Z,100.00
2023-02-06T21:57:53.716Z,100.00
2023-02-06T22:00:35.114Z,100.00
2023-02-06T22:03:15.010Z,100.00
2023-02-06T22:05:53.506Z,100.00
2023-02-06T22:08:30.892Z,100.00
2023-02-06T22:11:31.678Z,100.00
2023-02-06T22:14:18.552Z,100.00
2023-02-06T22:17:04.926Z,100.00
2023-02-06T22:19:51.156Z,100.00
2023-02-06T22:22:35.703Z,100.00
2023-02-06T22:25:19.752Z,100.00
2023-02-06T22:28:05.637Z,100.00
2023-02-06T22:30:43.931Z,100.00
2023-02-06T22:33:24.826Z,100.00
2023-02-06T22:36:28.944Z,100.00
2023-02-06T22:39:11.606Z,100.00
2023-02-06T22:42:03.516Z,100.00
2023-02-06T22:44:56.047Z,100.00
2023-02-06T22:47:33.898Z,100.00
2023-02-06T22:50:22.127Z,100.00
2023-02-06T22:53:10.525Z,100.00
2023-02-06T22:56:10.798Z,100.00
2023-02-06T22:58:44.927Z,100.00
2023-02-06T23:01:37.332Z,100.00
2023-02-06T23:04:20.708Z,100.00
2023-02-06T23:06:54.136Z,100.00
2023-02-06T23:09:46.866Z,100.00
2023-02-06T23:12:25.458Z,100.00
2023-02-06T23:15:20.936Z,100.00
2023-02-06T23:21:16.533Z,100.00
2023-02-06T23:23:48.961Z,100.00
2023-02-06T23:26:29.886Z,100.00
2023-02-06T23:29:24.362Z,100.00
2023-02-06T23:32:08.862Z,100.00
2023-02-06T23:35:00.029Z,100.00
2023-02-06T23:37:51.214Z,100.00
2023-02-06T23:40:29.254Z,100.00
2023-02-06T23:43:05.547Z,100.00
2023-02-06T23:45:50.934Z,100.00
2023-02-06T23:48:31.796Z,100.00
2023-02-06T23:51:27.023Z,100.00
2023-02-06T23:54:07.030Z,100.00
2023-02-06T23:56:48.805Z,100.00
2023-02-06T23:59:34.668Z,100.00
